Time;durP1;ratioP1;P1;durP2;ratioP2;P2;SDS_P1;SDS_P2;PMS_P1;PMS_P2;Temp;Humidity;BMP_temperature;BMP_pressure;BME280_temperature;BME280_humidity;BME280_pressure;Samples;Min_cycle;Max_cycle;Signal;HPM_P1;HPM_P2
2021/10/27 00:00:47;;;;;;;9.48;6.65;;;7.60;99.90;;;;;;5082693;28;20221;-78
2021/10/27 00:03:14;;;;;;;7.93;6.43;;;7.60;99.90;;;;;;5093831;28;20228;-78
2021/10/27 00:05:41;;;;;;;8.55;6.80;;;7.60;99.90;;;;;;5089995;28;20219;-78
2021/10/27 00:08:07;;;;;;;7.43;5.82;;;7.70;99.90;;;;;;5091883;28;20654;-78
2021/10/27 00:10:36;;;;;;;7.40;6.57;;;7.70;99.90;;;;;;5094731;28;20227;-78
2021/10/27 00:13:04;;;;;;;8.05;5.78;;;7.70;99.90;;;;;;5086782;28;20206;-79
2021/10/27 00:15:32;;;;;;;9.38;6.95;;;7.70;99.90;;;;;;5079947;28;20198;-78
2021/10/27 00:18:00;;;;;;;8.40;5.22;;;7.70;99.90;;;;;;5078353;28;20757;-78
2021/10/27 00:20:27;;;;;;;10.50;7.15;;;7.70;99.90;;;;;;5079347;28;20293;-80
2021/10/27 00:22:54;;;;;;;7.32;6.28;;;7.70;99.90;;;;;;5081029;28;20263;-79
2021/10/27 00:25:21;;;;;;;8.95;5.97;;;7.60;99.90;;;;;;5080276;28;20221;-79
2021/10/27 00:27:49;;;;;;;7.82;6.72;;;7.60;99.90;;;;;;5079862;28;20217;-79
2021/10/27 00:30:16;;;;;;;7.65;6.88;;;7.50;99.90;;;;;;5086112;28;20198;-79
2021/10/27 00:32:43;;;;;;;9.93;6.90;;;7.50;99.90;;;;;;5080123;28;20268;-79
2021/10/27 00:35:10;;;;;;;9.45;6.93;;;7.50;99.90;;;;;;5080696;28;20248;-79
2021/10/27 00:37:37;;;;;;;6.95;6.05;;;7.40;99.90;;;;;;5079940;28;20269;-79
2021/10/27 00:40:05;;;;;;;8.05;6.25;;;7.40;99.90;;;;;;5084390;28;20258;-79
2021/10/27 00:42:33;;;;;;;6.68;5.97;;;7.30;99.90;;;;;;5094811;28;20198;-79
2021/10/27 00:45:01;;;;;;;7.93;6.72;;;7.30;99.90;;;;;;5091774;28;20236;-79
2021/10/27 00:47:28;;;;;;;7.20;6.45;;;7.30;99.90;;;;;;5090317;28;20194;-79
2021/10/27 00:49:55;;;;;;;9.27;6.45;;;7.30;99.90;;;;;;5092371;28;20211;-79
2021/10/27 00:52:22;;;;;;;7.32;6.40;;;7.30;99.90;;;;;;5097707;28;20253;-80
2021/10/27 00:54:51;;;;;;;8.10;6.25;;;7.30;99.90;;;;;;5089011;28;20257;-80
2021/10/27 00:57:21;;;;;;;7.40;6.38;;;7.30;99.90;;;;;;5096591;28;20229;-80
2021/10/27 00:59:48;;;;;;;10.27;6.35;;;7.30;99.90;;;;;;5094424;28;20268;-78
2021/10/27 01:02:18;;;;;;;6.10;5.50;;;7.30;99.90;;;;;;5092809;28;20265;-80
2021/10/27 01:04:46;;;;;;;6.65;6.03;;;7.30;99.90;;;;;;5092242;28;20218;-79
2021/10/27 01:07:13;;;;;;;6.38;5.07;;;7.20;99.90;;;;;;5090393;28;20227;-79
2021/10/27 01:09:41;;;;;;;7.65;6.32;;;7.30;99.90;;;;;;5087910;28;20205;-79
2021/10/27 01:12:09;;;;;;;7.72;5.97;;;7.30;99.90;;;;;;5091244;28;20229;-79
2021/10/27 01:14:37;;;;;;;10.00;5.82;;;7.20;99.90;;;;;;5094110;28;20237;-79
2021/10/27 01:17:05;;;;;;;7.28;6.15;;;7.30;99.90;;;;;;5097679;28;20244;-79
2021/10/27 01:19:44;;;;;;;8.02;5.88;;;7.30;99.90;;;;;;5089344;28;20221;-79
2021/10/27 01:22:11;;;;;;;6.82;5.63;;;7.30;99.90;;;;;;5096860;28;20193;-79
2021/10/27 01:24:38;;;;;;;8.18;6.00;;;7.30;99.90;;;;;;5096343;28;20272;-78
2021/10/27 01:27:05;;;;;;;8.82;5.80;;;7.30;99.90;;;;;;5087254;28;20300;-77
2021/10/27 01:29:32;;;;;;;8.15;5.97;;;7.30;99.90;;;;;;5084800;28;20205;-80
2021/10/27 01:31:59;;;;;;;5.43;4.93;;;7.30;99.90;;;;;;5083886;28;20232;-80
2021/10/27 01:34:26;;;;;;;7.18;6.47;;;7.30;99.90;;;;;;5083508;28;20625;-79
2021/10/27 01:36:54;;;;;;;7.60;5.32;;;7.30;99.90;;;;;;5082548;28;20209;-80
2021/10/27 01:39:22;;;;;;;8.63;6.20;;;7.30;99.90;;;;;;5083893;28;20677;-80
2021/10/27 01:41:49;;;;;;;8.07;5.72;;;7.30;99.90;;;;;;5084113;28;20205;-79
2021/10/27 01:44:16;;;;;;;6.78;6.07;;;7.30;99.90;;;;;;5081745;28;20229;-80
2021/10/27 01:46:43;;;;;;;10.38;6.20;;;7.40;99.90;;;;;;5080716;28;20214;-78
2021/10/27 01:49:12;;;;;;;6.30;5.65;;;7.40;99.90;;;;;;5079726;28;20237;-79
2021/10/27 01:51:41;;;;;;;6.57;5.72;;;7.40;99.90;;;;;;5081707;28;20746;-78
2021/10/27 01:54:09;;;;;;;7.10;5.57;;;7.40;99.90;;;;;;5082088;28;20737;-79
2021/10/27 01:56:37;;;;;;;6.95;6.05;;;7.30;99.90;;;;;;5082346;28;20206;-80
2021/10/27 01:59:04;;;;;;;7.93;5.78;;;7.20;99.90;;;;;;5081307;28;20209;-80
2021/10/27 02:01:31;;;;;;;6.10;5.05;;;7.20;99.90;;;;;;5079775;28;20289;-81
2021/10/27 02:03:59;;;;;;;6.50;5.90;;;7.10;99.90;;;;;;5078665;28;20660;-80
2021/10/27 02:06:26;;;;;;;7.50;5.65;;;7.10;99.90;;;;;;5080155;28;20703;-80
2021/10/27 02:08:53;;;;;;;6.38;5.13;;;7.10;99.90;;;;;;5082581;28;20202;-78
2021/10/27 02:11:21;;;;;;;7.85;5.15;;;7.10;99.90;;;;;;5089677;28;20222;-79
2021/10/27 02:13:48;;;;;;;6.97;5.40;;;7.00;99.90;;;;;;5092777;28;20226;-78
2021/10/27 02:16:15;;;;;;;6.15;4.30;;;7.00;99.90;;;;;;5093029;28;20213;-79
2021/10/27 02:18:42;;;;;;;5.47;4.63;;;7.00;99.90;;;;;;5087153;28;20205;-79
2021/10/27 02:21:09;;;;;;;5.50;4.95;;;7.00;99.90;;;;;;5079659;28;20232;-79
2021/10/27 02:23:36;;;;;;;6.15;4.70;;;6.90;99.90;;;;;;5080122;28;20264;-78
2021/10/27 02:26:03;;;;;;;9.55;5.43;;;6.90;99.90;;;;;;5079644;28;20255;-78
2021/10/27 02:28:31;;;;;;;8.30;5.55;;;7.00;99.90;;;;;;5080264;28;20216;-78
2021/10/27 02:30:58;;;;;;;7.25;5.20;;;7.00;99.90;;;;;;5078690;28;20241;-79
2021/10/27 02:33:25;;;;;;;7.60;4.90;;;7.00;99.90;;;;;;5076412;28;20328;-79
2021/10/27 02:35:52;;;;;;;5.90;4.68;;;7.00;99.90;;;;;;5077105;28;20688;-79
2021/10/27 02:38:19;;;;;;;6.75;4.85;;;7.00;99.90;;;;;;5076499;28;20239;-79
2021/10/27 02:40:46;;;;;;;5.88;5.28;;;7.10;99.90;;;;;;5076322;28;20283;-79
2021/10/27 02:43:15;;;;;;;6.47;4.68;;;7.00;99.90;;;;;;5075779;28;20206;-79
2021/10/27 02:45:43;;;;;;;6.20;5.20;;;7.00;99.90;;;;;;5076492;28;20661;-79
2021/10/27 02:48:10;;;;;;;5.22;4.40;;;7.00;99.90;;;;;;5076804;28;20561;-79
2021/10/27 02:50:37;;;;;;;5.47;4.53;;;7.00;99.90;;;;;;5076450;28;20233;-79
2021/10/27 02:53:05;;;;;;;5.13;3.58;;;6.90;99.90;;;;;;5076589;28;20724;-78
2021/10/27 02:55:32;;;;;;;4.75;3.97;;;6.90;99.90;;;;;;5076495;28;20671;-79
2021/10/27 02:58:00;;;;;;;6.63;4.60;;;6.90;99.90;;;;;;5078125;28;20694;-79
2021/10/27 03:00:28;;;;;;;4.55;3.95;;;6.80;99.90;;;;;;5077362;28;20206;-79
2021/10/27 03:02:57;;;;;;;7.25;4.97;;;6.80;99.90;;;;;;5077160;28;20283;-79
2021/10/27 03:05:24;;;;;;;5.18;4.50;;;6.80;99.90;;;;;;5077587;28;20229;-78
2021/10/27 03:07:51;;;;;;;6.20;4.18;;;6.80;99.90;;;;;;5078391;28;20218;-79
2021/10/27 03:10:18;;;;;;;5.68;4.57;;;6.80;99.90;;;;;;5078246;28;20261;-79
2021/10/27 03:12:45;;;;;;;5.75;4.20;;;6.80;99.90;;;;;;5083743;28;20690;-80
2021/10/27 03:15:13;;;;;;;6.13;4.03;;;6.80;99.90;;;;;;5095966;28;20224;-78
2021/10/27 03:17:39;;;;;;;5.60;4.10;;;6.80;99.90;;;;;;5085041;28;20269;-80
2021/10/27 03:20:09;;;;;;;5.90;4.47;;;6.80;99.90;;;;;;5091506;28;20225;-79
2021/10/27 03:22:36;;;;;;;5.05;4.53;;;6.80;99.90;;;;;;5095869;28;20198;-80
2021/10/27 03:25:04;;;;;;;8.05;5.15;;;6.80;99.90;;;;;;5084791;28;20705;-79
2021/10/27 03:27:31;;;;;;;5.47;4.13;;;6.80;99.90;;;;;;5082870;28;20661;-80
2021/10/27 03:29:58;;;;;;;4.57;3.75;;;6.90;99.90;;;;;;5087225;28;20201;-79
2021/10/27 03:32:24;;;;;;;4.82;4.32;;;6.90;99.90;;;;;;5087800;28;20248;-78
2021/10/27 03:34:51;;;;;;;5.57;3.70;;;6.90;99.90;;;;;;5077708;28;20229;-80
2021/10/27 03:37:20;;;;;;;5.93;4.82;;;6.90;99.90;;;;;;5084140;28;20216;-80
2021/10/27 03:39:47;;;;;;;4.63;4.15;;;6.90;99.90;;;;;;5090830;28;20213;-79
2021/10/27 03:42:13;;;;;;;5.07;4.57;;;6.90;99.90;;;;;;5086091;28;20218;-79
2021/10/27 03:44:40;;;;;;;4.70;4.20;;;6.90;99.90;;;;;;5092837;28;20232;-79
2021/10/27 03:47:07;;;;;;;5.40;4.35;;;6.80;99.90;;;;;;5079810;28;20579;-79
2021/10/27 03:49:34;;;;;;;5.95;4.28;;;6.80;99.90;;;;;;5076376;28;20222;-79
2021/10/27 03:52:02;;;;;;;5.82;4.00;;;6.80;99.90;;;;;;5076264;28;20232;-80
2021/10/27 03:54:31;;;;;;;4.38;3.97;;;6.80;99.90;;;;;;5076831;28;20261;-79
2021/10/27 03:56:58;;;;;;;6.72;4.07;;;6.70;99.90;;;;;;5081296;28;20216;-78
2021/10/27 03:59:25;;;;;;;6.13;4.72;;;6.70;99.90;;;;;;5081936;28;20217;-78
2021/10/27 04:01:52;;;;;;;4.53;4.03;;;6.80;99.90;;;;;;5091618;28;20716;-81
2021/10/27 04:04:19;;;;;;;6.15;4.22;;;6.80;99.90;;;;;;5090183;23;20331;-76
2021/10/27 04:06:46;;;;;;;5.75;4.22;;;6.90;99.90;;;;;;5053462;28;20210;-76
2021/10/27 04:09:13;;;;;;;4.75;4.30;;;6.90;99.90;;;;;;5053475;28;20234;-75
2021/10/27 04:11:42;;;;;;;5.80;4.20;;;6.90;99.90;;;;;;5054714;28;20211;-76
2021/10/27 04:14:09;;;;;;;5.93;4.20;;;7.00;99.90;;;;;;5059197;28;20257;-76
2021/10/27 04:16:35;;;;;;;5.38;4.60;;;7.00;99.90;;;;;;5060982;28;20264;-76
2021/10/27 04:19:03;;;;;;;4.90;3.90;;;7.00;99.90;;;;;;5072007;28;20198;-75
2021/10/27 04:21:30;;;;;;;4.85;4.35;;;7.10;99.90;;;;;;5080111;28;20229;-75
2021/10/27 04:23:57;;;;;;;6.43;4.50;;;7.20;99.90;;;;;;5078807;28;20253;-75
2021/10/27 04:26:23;;;;;;;10.65;5.00;;;7.20;99.90;;;;;;5063091;28;20210;-76
2021/10/27 04:28:53;;;;;;;5.55;4.55;;;7.30;99.90;;;;;;5057362;28;21011;-75
2021/10/27 04:31:20;;;;;;;5.15;4.30;;;7.30;99.90;;;;;;5058024;28;20207;-77
2021/10/27 04:33:47;;;;;;;6.97;4.78;;;7.40;99.90;;;;;;5058053;28;20234;-77
2021/10/27 04:36:15;;;;;;;6.85;4.93;;;7.40;99.90;;;;;;5057402;28;20213;-77
2021/10/27 04:38:42;;;;;;;8.00;5.20;;;7.40;99.90;;;;;;5057108;28;20248;-77
2021/10/27 04:41:08;;;;;;;7.75;5.57;;;7.30;99.90;;;;;;5057052;28;20662;-77
2021/10/27 04:43:35;;;;;;;6.47;5.70;;;7.30;99.90;;;;;;5058398;28;20226;-77
2021/10/27 04:46:04;;;;;;;8.20;6.00;;;7.20;99.90;;;;;;5057837;28;20209;-77
2021/10/27 04:48:31;;;;;;;6.75;5.35;;;7.10;99.90;;;;;;5057744;28;20217;-76
2021/10/27 04:50:58;;;;;;;5.93;5.43;;;7.10;99.90;;;;;;5059017;28;20294;-77
2021/10/27 04:53:25;;;;;;;6.00;5.40;;;7.00;99.90;;;;;;5058781;28;20234;-77
2021/10/27 04:55:52;;;;;;;9.07;5.80;;;7.00;99.90;;;;;;5057596;28;20240;-77
2021/10/27 04:58:20;;;;;;;9.77;6.35;;;7.00;99.90;;;;;;5063645;28;20641;-76
2021/10/27 05:00:47;;;;;;;8.00;6.03;;;6.90;99.90;;;;;;5063828;28;20233;-76
2021/10/27 05:03:15;;;;;;;7.50;5.95;;;7.00;99.90;;;;;;5061892;28;20754;-75
2021/10/27 05:05:46;;;;;;;11.80;5.93;;;7.10;99.90;;;;;;5036999;28;20226;-76
2021/10/27 05:08:15;;;;;;;8.98;6.35;;;7.10;99.90;;;;;;5043020;28;20671;-78
2021/10/27 05:10:42;;;;;;;9.68;6.53;;;7.20;99.90;;;;;;5075529;28;20203;-77
2021/10/27 05:13:09;;;;;;;7.97;6.70;;;7.20;99.90;;;;;;5059541;28;20715;-77
2021/10/27 05:15:36;;;;;;;9.35;5.63;;;7.30;99.90;;;;;;5058672;28;20291;-77
2021/10/27 05:18:06;;;;;;;7.18;6.47;;;7.30;99.90;;;;;;5060495;28;20666;-77
2021/10/27 05:20:35;;;;;;;9.02;5.50;;;7.40;99.90;;;;;;5062007;28;20207;-76
2021/10/27 05:23:02;;;;;;;5.88;5.38;;;7.40;99.90;;;;;;5057351;28;20269;-77
2021/10/27 05:25:29;;;;;;;8.75;5.53;;;7.40;99.90;;;;;;5062519;28;20697;-78
2021/10/27 05:27:56;;;;;;;7.30;6.10;;;7.40;99.90;;;;;;5068501;28;20209;-75
2021/10/27 05:30:23;;;;;;;6.40;5.80;;;7.40;99.90;;;;;;5066981;28;20261;-79
2021/10/27 05:32:54;;;;;;;6.85;5.55;;;7.40;99.90;;;;;;5060719;28;20218;-76
2021/10/27 05:35:21;;;;;;;6.40;5.78;;;7.30;99.90;;;;;;5057265;28;20223;-75
2021/10/27 05:37:49;;;;;;;8.60;5.80;;;7.30;99.90;;;;;;5052647;28;20268;-74
2021/10/27 05:40:16;;;;;;;7.75;5.68;;;7.30;99.90;;;;;;5056789;28;20678;-75
2021/10/27 05:42:43;;;;;;;6.57;4.75;;;7.20;99.90;;;;;;5055972;28;20198;-76
2021/10/27 05:45:10;;;;;;;7.82;6.03;;;7.10;99.90;;;;;;5056163;28;20261;-74
2021/10/27 05:47:43;;;;;;;6.57;5.90;;;7.10;99.90;;;;;;5059444;28;20602;-75
2021/10/27 05:50:23;;;;;;;6.43;5.55;;;7.10;99.90;;;;;;5058069;28;20234;-75
2021/10/27 05:55:34;;;;;;;7.38;6.20;;;7.20;99.90;;;;;;5024792;28;20245;-77
2021/10/27 05:58:01;;;;;;;5.75;5.25;;;7.20;99.90;;;;;;5054349;28;20213;-75
2021/10/27 06:00:29;;;;;;;6.75;6.15;;;7.30;99.90;;;;;;5051635;28;20322;-75
2021/10/27 06:02:58;;;;;;;8.32;6.32;;;7.30;99.90;;;;;;5053482;28;20195;-76
2021/10/27 06:05:25;;;;;;;6.25;5.28;;;7.40;99.90;;;;;;5055090;28;20269;-75
2021/10/27 06:07:54;;;;;;;6.32;5.65;;;7.30;99.90;;;;;;5054457;28;20271;-76
2021/10/27 06:10:22;;;;;;;7.13;6.10;;;7.40;99.90;;;;;;5051865;28;20673;-73
2021/10/27 06:12:50;;;;;;;8.35;6.30;;;7.40;99.90;;;;;;5051839;28;20234;-74
2021/10/27 06:15:18;;;;;;;6.97;5.85;;;7.40;99.90;;;;;;5054569;28;20566;-74
2021/10/27 06:17:45;;;;;;;7.95;7.15;;;7.50;99.90;;;;;;5056177;28;20202;-75
2021/10/27 06:20:13;;;;;;;6.20;5.60;;;7.40;99.90;;;;;;5054811;28;20213;-74
2021/10/27 06:22:41;;;;;;;7.78;5.60;;;7.40;99.90;;;;;;5054917;28;20266;-76
2021/10/27 06:25:11;;;;;;;9.57;6.38;;;7.50;99.90;;;;;;5055517;28;20226;-76
2021/10/27 06:27:40;;;;;;;6.35;5.35;;;7.50;99.90;;;;;;5055440;28;20206;-76
2021/10/27 06:30:11;;;;;;;7.22;6.50;;;7.50;99.90;;;;;;5061230;28;20715;-80
2021/10/27 06:32:44;;;;;;;7.38;6.25;;;7.60;99.90;;;;;;5066365;28;20191;-82
2021/10/27 06:35:13;;;;;;;8.73;5.93;;;7.60;99.90;;;;;;5064378;28;20226;-81
2021/10/27 06:37:56;;;;;;;8.75;6.50;;;7.70;99.90;;;;;;5065298;28;20232;-83
2021/10/27 06:46:13;;;;;;;7.30;5.95;;;7.80;99.90;;;;;;5034346;28;20191;-78
2021/10/27 06:48:40;;;;;;;6.63;5.95;;;7.90;99.90;;;;;;5048597;28;20289;-75
2021/10/27 06:51:08;;;;;;;6.90;6.20;;;8.00;99.90;;;;;;5047092;28;20285;-79
2021/10/27 06:53:35;;;;;;;7.75;6.68;;;8.10;99.90;;;;;;5064392;28;20234;-78
2021/10/27 06:56:08;;;;;;;8.20;6.38;;;8.30;99.90;;;;;;5070489;28;20199;-77
2021/10/27 06:58:42;;;;;;;9.82;6.53;;;8.30;99.90;;;;;;5072962;28;20187;-75
2021/10/27 07:01:14;;;;;;;7.93;6.53;;;8.40;99.90;;;;;;5074537;28;20198;-78
2021/10/27 07:03:58;;;;;;;6.50;5.00;;;8.50;99.90;;;;;;5069602;28;20195;-77
2021/10/27 07:06:42;;;;;;;5.18;4.10;;;8.60;99.90;;;;;;5056177;28;20237;-79
2021/10/27 07:17:24;;;;;;;8.75;4.85;;;8.80;99.90;;;;;;5054440;28;20217;-79
2021/10/27 07:19:51;;;;;;;7.18;4.82;;;8.70;99.90;;;;;;5054636;28;20256;-78
2021/10/27 07:22:18;;;;;;;5.22;4.53;;;8.80;99.90;;;;;;5056970;28;20285;-79
2021/10/27 07:24:45;;;;;;;4.00;3.65;;;8.80;99.10;;;;;;5060749;28;20219;-78
2021/10/27 07:27:14;;;;;;;4.80;4.03;;;8.90;98.30;;;;;;5061836;28;20266;-78
2021/10/27 07:29:43;;;;;;;4.97;3.72;;;8.90;96.70;;;;;;5065647;28;20285;-78
2021/10/27 07:32:13;;;;;;;4.40;3.72;;;9.00;95.80;;;;;;5058897;28;20207;-77
2021/10/27 07:34:42;;;;;;;5.80;4.45;;;9.00;94.90;;;;;;5052918;28;20233;-78
2021/10/27 07:42:53;;;;;;;5.72;5.18;;;9.20;92.70;;;;;;5052243;28;20206;-76
2021/10/27 07:45:22;;;;;;;4.88;4.38;;;9.30;92.20;;;;;;5055266;28;20756;-76
2021/10/27 07:47:50;;;;;;;5.70;3.78;;;9.40;92.20;;;;;;5058003;28;20198;-77
2021/10/27 07:50:17;;;;;;;4.57;4.15;;;9.50;92.30;;;;;;5061391;28;20670;-76
2021/10/27 07:52:44;;;;;;;5.70;3.50;;;9.60;91.60;;;;;;5061988;28;20208;-77
2021/10/27 07:55:11;;;;;;;4.10;3.58;;;9.60;91.20;;;;;;5061879;28;20219;-77
2021/10/27 07:57:38;;;;;;;5.30;3.88;;;9.70;90.40;;;;;;5064991;28;20729;-76
2021/10/27 08:00:07;;;;;;;7.90;4.00;;;9.70;90.10;;;;;;5063753;28;20212;-77
2021/10/27 08:02:34;;;;;;;4.15;3.75;;;9.80;90.40;;;;;;5062702;28;20192;-77
2021/10/27 08:05:02;;;;;;;4.70;4.07;;;10.00;89.10;;;;;;5064030;28;20225;-79
2021/10/27 08:07:29;;;;;;;6.63;4.00;;;10.00;85.60;;;;;;5064136;28;20244;-77
2021/10/27 08:09:56;;;;;;;5.00;4.50;;;10.10;84.80;;;;;;5062549;28;20200;-76
2021/10/27 08:12:23;;;;;;;4.38;3.97;;;10.10;83.40;;;;;;5062691;28;20566;-75
2021/10/27 08:14:50;;;;;;;7.85;3.90;;;10.10;82.30;;;;;;5062424;28;20237;-75
2021/10/27 08:17:18;;;;;;;7.18;4.50;;;10.10;82.10;;;;;;5062063;28;20667;-75
2021/10/27 08:19:45;;;;;;;11.43;4.93;;;10.20;82.30;;;;;;5066850;28;20236;-76
2021/10/27 08:22:12;;;;;;;8.75;4.60;;;10.30;81.20;;;;;;5065874;28;20209;-76
2021/10/27 08:24:39;;;;;;;5.15;4.65;;;10.30;81.60;;;;;;5066251;28;20254;-74
2021/10/27 08:27:08;;;;;;;5.53;4.28;;;10.30;82.20;;;;;;5063406;28;20209;-75
2021/10/27 08:29:39;;;;;;;4.38;3.92;;;10.50;82.50;;;;;;5061351;28;20578;-77
2021/10/27 08:32:14;;;;;;;7.70;4.25;;;10.50;80.70;;;;;;5062004;28;20235;-75
2021/10/27 08:34:47;;;;;;;7.07;4.10;;;10.50;81.90;;;;;;5062774;28;20236;-77
2021/10/27 08:37:15;;;;;;;4.82;4.30;;;10.70;80.90;;;;;;5061037;28;20208;-75
2021/10/27 08:39:42;;;;;;;6.38;4.10;;;10.90;80.40;;;;;;5059841;28;20209;-77
2021/10/27 08:42:09;;;;;;;7.32;4.55;;;10.70;78.20;;;;;;5060516;28;20220;-76
2021/10/27 08:44:36;;;;;;;7.90;4.65;;;10.90;78.80;;;;;;5062023;28;20340;-77
2021/10/27 08:47:04;;;;;;;4.55;4.07;;;11.10;77.30;;;;;;5063194;28;20208;-76
2021/10/27 08:49:32;;;;;;;5.20;4.70;;;11.20;77.00;;;;;;5063475;28;20267;-79
2021/10/27 08:52:03;;;;;;;5.47;4.45;;;11.20;75.70;;;;;;5063045;28;20203;-76
2021/10/27 08:54:31;;;;;;;6.03;4.75;;;11.20;75.10;;;;;;5062949;28;20236;-76
2021/10/27 08:57:03;;;;;;;5.30;4.80;;;11.20;75.30;;;;;;5064359;28;20552;-76
2021/10/27 08:59:39;;;;;;;5.38;4.47;;;11.20;75.60;;;;;;5060083;28;20225;-77
2021/10/27 09:02:21;;;;;;;4.75;4.22;;;11.40;75.40;;;;;;5063130;28;20212;-76
2021/10/27 09:05:04;;;;;;;8.57;5.00;;;11.70;74.60;;;;;;5062504;28;20234;-75
2021/10/27 09:07:46;;;;;;;5.72;4.80;;;11.80;72.90;;;;;;5064180;28;20301;-76
2021/10/27 09:14:22;;;;;;;8.00;4.45;;;11.90;71.60;;;;;;5037178;28;20191;-76
2021/10/27 09:16:32;;;;;;;4.75;4.35;;;12.10;69.50;;;;;;5061953;28;20731;-76
2021/10/27 10:06:24;;;;;;;4.85;4.25;;;13.30;61.70;;;;;;5062439;28;20225;-75
2021/10/27 10:08:51;;;;;;;4.53;4.13;;;13.30;61.70;;;;;;5057979;28;20216;-74
2021/10/27 10:11:21;;;;;;;6.35;3.72;;;13.40;61.80;;;;;;5057141;28;20202;-73
2021/10/27 10:13:50;;;;;;;10.70;4.40;;;13.60;61.90;;;;;;5056583;28;20253;-75
2021/10/27 10:16:18;;;;;;;4.88;3.42;;;13.60;61.90;;;;;;5056414;28;20228;-73
2021/10/27 10:18:47;;;;;;;4.97;3.90;;;13.70;61.80;;;;;;5055653;28;20301;-73
2021/10/27 10:21:15;;;;;;;3.97;3.55;;;13.90;60.80;;;;;;5055684;28;20297;-73
2021/10/27 10:23:42;;;;;;;8.45;3.90;;;13.90;61.10;;;;;;5055389;28;20271;-73
2021/10/27 10:26:09;;;;;;;7.15;3.95;;;14.00;60.60;;;;;;5054948;28;20305;-73
2021/10/27 10:28:42;;;;;;;4.28;3.70;;;14.10;61.20;;;;;;5055368;28;20203;-73
2021/10/27 10:31:11;;;;;;;4.78;3.70;;;14.20;60.20;;;;;;5055537;28;20674;-74
2021/10/27 10:33:42;;;;;;;4.35;3.92;;;14.30;59.60;;;;;;5056063;28;20405;-76
2021/10/27 10:36:12;;;;;;;5.50;2.92;;;14.30;59.70;;;;;;5057284;28;20208;-77
2021/10/27 10:45:05;;;;;;;3.55;3.17;;;14.10;60.30;;;;;;5054099;28;20219;-76
2021/10/27 11:24:48;;;;;;;3.42;1.98;;;15.50;55.20;;;;;;5063006;28;20454;-80
2021/10/27 11:27:31;;;;;;;2.92;2.20;;;15.50;55.00;;;;;;5062386;28;20297;-81
2021/10/27 11:38:36;;;;;;;2.10;1.90;;;15.60;54.50;;;;;;5076814;28;20433;-77
2021/10/27 11:41:13;;;;;;;1.60;1.50;;;15.70;54.60;;;;;;5076526;28;20461;-76
2021/10/27 11:43:56;;;;;;;1.97;1.63;;;15.70;54.60;;;;;;5076529;28;20451;-81
2021/10/27 11:46:26;;;;;;;1.63;1.53;;;15.90;54.70;;;;;;5061370;28;20489;-82
2021/10/27 11:49:08;;;;;;;2.77;1.70;;;15.90;54.70;;;;;;5062005;28;20497;-80
2021/10/27 11:51:35;;;;;;;3.53;1.88;;;15.70;54.60;;;;;;5060287;28;20445;-78
2021/10/27 11:54:11;;;;;;;3.55;2.25;;;15.90;54.70;;;;;;5062819;28;20330;-80
2021/10/27 11:56:38;;;;;;;2.53;2.33;;;16.00;54.80;;;;;;5062390;28;20210;-80
2021/10/27 11:59:05;;;;;;;2.70;1.98;;;16.00;54.80;;;;;;5076874;28;20199;-77
2021/10/27 12:01:35;;;;;;;4.70;1.80;;;16.10;55.00;;;;;;5076721;28;20222;-78
2021/10/27 12:04:03;;;;;;;3.25;1.70;;;16.20;55.00;;;;;;5065132;28;20200;-81
2021/10/27 12:06:36;;;;;;;1.80;1.70;;;16.30;55.10;;;;;;5061085;28;20270;-79
2021/10/27 12:12:07;;;;;;;3.40;2.30;;;16.20;55.00;;;;;;5060563;28;20235;-80
2021/10/27 12:14:55;;;;;;;2.35;1.80;;;16.20;55.00;;;;;;5076772;28;20228;-76
2021/10/27 12:17:31;;;;;;;1.80;1.70;;;16.30;55.10;;;;;;5076593;28;20190;-80
2021/10/27 12:19:58;;;;;;;3.47;1.97;;;16.10;55.00;;;;;;5068287;28;20211;-76
2021/10/27 12:22:25;;;;;;;2.00;1.90;;;16.20;55.00;;;;;;5068321;28;20454;-79
2021/10/27 12:24:56;;;;;;;7.30;2.20;;;16.20;55.00;;;;;;5061428;28;20467;-80
2021/10/27 12:27:30;;;;;;;2.87;1.90;;;16.20;55.00;;;;;;5062751;28;20488;-80
2021/10/27 12:29:59;;;;;;;3.77;2.30;;;16.10;55.00;;;;;;5062865;28;20518;-83
2021/10/27 12:32:29;;;;;;;3.07;2.33;;;16.10;54.90;;;;;;5061308;28;20840;-80
2021/10/27 12:34:58;;;;;;;4.70;2.53;;;16.20;55.00;;;;;;5063401;28;20526;-82
2021/10/27 12:37:37;;;;;;;5.53;2.00;;;16.20;54.50;;;;;;5063966;28;20524;-80
2021/10/27 12:40:14;;;;;;;5.90;2.40;;;16.30;54.90;;;;;;5064979;28;20456;-78
2021/10/27 12:42:42;;;;;;;4.47;2.10;;;16.40;55.00;;;;;;5067162;28;20458;-80
2021/10/27 12:45:09;;;;;;;3.33;2.27;;;16.50;54.00;;;;;;5065367;28;20481;-80
2021/10/27 12:47:39;;;;;;;7.60;2.40;;;16.50;53.80;;;;;;5064414;28;20457;-80
2021/10/27 12:50:09;;;;;;;3.23;2.63;;;16.50;52.90;;;;;;5066441;28;20809;-80
2021/10/27 12:52:40;;;;;;;2.40;2.03;;;16.60;53.50;;;;;;5069673;28;20467;-79
2021/10/27 12:55:19;;;;;;;3.40;2.37;;;16.50;53.50;;;;;;5071821;28;20522;-80
2021/10/27 12:58:08;;;;;;;2.60;1.70;;;16.50;53.70;;;;;;5071114;28;20538;-80
2021/10/27 13:00:51;;;;;;;3.00;2.10;;;16.60;53.00;;;;;;5064595;28;20456;-80
2021/10/27 13:06:14;;;;;;;2.00;1.77;;;16.60;52.70;;;;;;5074829;28;20488;-79
2021/10/27 13:11:53;;;;;;;5.23;1.80;;;16.50;52.80;;;;;;5066718;28;20435;-80
2021/10/27 13:14:32;;;;;;;4.60;1.70;;;16.50;52.80;;;;;;5072994;28;20491;-80
2021/10/27 13:20:05;;;;;;;2.13;1.83;;;16.70;52.70;;;;;;5066651;28;20419;-79
2021/10/27 13:22:39;;;;;;;7.03;1.60;;;16.70;52.20;;;;;;5060495;28;20456;-79
2021/10/27 13:30:47;;;;;;;2.40;1.60;;;16.70;51.70;;;;;;5058895;28;20445;-79
2021/10/27 13:33:16;;;;;;;2.13;1.50;;;16.80;51.70;;;;;;5059035;28;20507;-78
2021/10/27 13:35:43;;;;;;;2.00;1.53;;;16.80;51.60;;;;;;5063129;28;20489;-80
2021/10/27 13:38:12;;;;;;;2.07;1.50;;;16.70;51.20;;;;;;5064469;28;20532;-82
2021/10/27 13:40:42;;;;;;;1.63;1.50;;;16.60;51.40;;;;;;5065354;28;20496;-80
2021/10/27 13:43:11;;;;;;;1.67;1.58;;;16.60;51.30;;;;;;5066308;28;20432;-81
2021/10/27 13:45:47;;;;;;;4.23;1.30;;;16.60;50.80;;;;;;5062021;28;20226;-82
2021/10/27 13:48:17;;;;;;;1.60;1.50;;;16.70;50.70;;;;;;5064608;28;20795;-83
2021/10/27 14:07:29;;;;;;;3.23;1.50;;;16.70;49.80;;;;;;5068878;28;20426;-82
2021/10/27 14:10:00;;;;;;;1.53;1.40;;;16.70;49.60;;;;;;5074952;28;20447;-85
2021/10/27 14:12:39;;;;;;;2.20;1.40;;;16.80;49.00;;;;;;5075774;28;20437;-83
2021/10/27 14:15:19;;;;;;;8.47;1.50;;;16.70;49.20;;;;;;5076516;28;20481;-80
2021/10/27 14:40:16;;;;;;;3.10;1.33;;;16.40;49.90;;;;;;5038942;28;20454;-80
2021/10/27 14:51:07;;;;;;;3.63;1.50;;;16.40;50.10;;;;;;5061967;28;20444;-82
2021/10/27 15:21:09;;;;;;;2.27;2.07;;;16.00;52.50;;;;;;5069828;28;20490;-82
2021/10/27 15:23:45;;;;;;;1.83;1.73;;;15.90;52.40;;;;;;5069324;28;20487;-80
2021/10/27 15:29:23;;;;;;;2.20;1.80;;;15.80;53.30;;;;;;5021036;28;20237;-80
2021/10/27 15:34:47;;;;;;;6.55;1.83;;;15.70;54.10;;;;;;5041337;28;20287;-82
2021/10/27 15:40:19;;;;;;;2.50;1.80;;;15.60;54.50;;;;;;5047588;28;20286;-82
2021/10/27 15:43:13;;;;;;;3.45;1.90;;;15.50;54.40;;;;;;5060690;28;20597;-81
2021/10/27 15:51:08;;;;;;;1.90;1.80;;;15.20;54.90;;;;;;5060602;28;20462;-80
2021/10/27 15:53:36;;;;;;;3.38;2.60;;;15.20;55.60;;;;;;5060777;28;20195;-81
2021/10/27 15:56:05;;;;;;;3.33;2.25;;;15.10;55.80;;;;;;5061820;28;20690;-83
2021/10/27 15:58:32;;;;;;;2.20;1.90;;;15.00;56.20;;;;;;5060850;28;20270;-83
2021/10/27 16:00:59;;;;;;;2.33;1.98;;;15.00;56.50;;;;;;5061913;28;20205;-82
2021/10/27 16:03:28;;;;;;;5.75;2.50;;;14.90;57.00;;;;;;5061934;28;20316;-81
2021/10/27 16:05:57;;;;;;;2.58;2.10;;;14.80;57.70;;;;;;5063403;28;20321;-82
2021/10/27 16:08:26;;;;;;;2.30;1.83;;;14.70;57.90;;;;;;5064624;28;20199;-81
2021/10/27 16:10:54;;;;;;;3.33;2.38;;;14.70;58.40;;;;;;5068516;28;20206;-80
2021/10/27 16:13:23;;;;;;;2.67;2.47;;;14.50;58.70;;;;;;5073266;28;20207;-81
2021/10/27 16:15:56;;;;;;;4.10;2.50;;;14.50;59.50;;;;;;5076612;28;20222;-80
2021/10/27 16:21:01;;;;;;;2.60;2.40;;;14.40;60.30;;;;;;5125739;22;20237;-84
2021/10/27 16:23:28;;;;;;;2.92;2.63;;;14.30;60.90;;;;;;5100132;28;20220;-83
2021/10/27 16:25:56;;;;;;;4.88;2.20;;;14.20;61.70;;;;;;5098944;28;20237;-83
2021/10/27 16:28:25;;;;;;;3.05;2.20;;;14.10;62.40;;;;;;5091572;28;20222;-82
2021/10/27 16:30:53;;;;;;;3.42;2.45;;;14.00;62.30;;;;;;5086919;28;20233;-81
2021/10/27 16:33:21;;;;;;;6.00;2.75;;;14.00;63.10;;;;;;5083808;28;20692;-83
2021/10/27 16:35:49;;;;;;;3.50;2.33;;;13.90;63.60;;;;;;5098524;22;20236;-78
2021/10/27 16:38:17;;;;;;;3.50;3.10;;;13.80;64.60;;;;;;5083527;28;20205;-78
2021/10/27 16:40:44;;;;;;;6.85;4.47;;;13.70;65.40;;;;;;5090316;28;20616;-76
2021/10/27 16:43:11;;;;;;;5.63;3.60;;;13.60;66.50;;;;;;5091611;28;20221;-77
2021/10/27 16:45:40;;;;;;;3.53;3.22;;;13.50;67.90;;;;;;5091555;28;20226;-77
2021/10/27 16:48:07;;;;;;;4.78;3.15;;;13.40;68.70;;;;;;5087438;28;20221;-77
2021/10/27 16:50:35;;;;;;;4.63;3.53;;;13.30;69.70;;;;;;5088341;28;20301;-77
2021/10/27 16:53:02;;;;;;;6.47;3.90;;;13.20;70.50;;;;;;5094319;28;20209;-77
2021/10/27 16:55:29;;;;;;;4.85;4.18;;;13.20;70.50;;;;;;5095960;28;20661;-77
2021/10/27 16:57:59;;;;;;;5.40;3.38;;;13.10;71.70;;;;;;5096834;28;20236;-77